Time,TemperatureF,DewpointF,PressureIn,WindDirection,WindDirectionDegrees,WindSpeedMPH,WindSpeedGustMPH,Humidity,HourlyPrecipIn,Conditions,Clouds,dailyrainin,SoftwareType,DateUTC
2012-10-16 00:00:00,57.2,54.9,29.55,West,270,8.5,8.5,92,0.00,,,0.00,WUHU216HW,2012-10-16 07:00:00,
2012-10-16 00:05:00,57.1,54.7,29.55,SW,225,7.2,8.5,92,0.00,,,0.00,WUHU216HW,2012-10-16 07:05:00,
2012-10-16 00:10:00,56.7,54.4,29.55,WSW,248,3.4,8.5,92,0.00,,,0.00,WUHU216HW,2012-10-16 07:10:00,
2012-10-16 00:15:00,56.5,54.2,29.56,South,180,2.5,7.2,92,0.00,,,0.00,WUHU216HW,2012-10-16 07:15:00,
2012-10-16 00:20:00,56.5,54.2,29.55,WSW,248,4.3,7.8,92,0.00,,,0.00,WUHU216HW,2012-10-16 07:20:00,
2012-10-16 00:25:00,56.3,54.0,29.56,SW,225,4.3,12.1,92,0.00,,,0.00,WUHU216HW,2012-10-16 07:25:00,
2012-10-16 00:30:00,56.2,53.8,29.56,WSW,248,6.5,12.1,92,0.00,,,0.00,WUHU216HW,2012-10-16 07:30:00,
2012-10-16 00:35:00,56.2,53.8,29.56,SW,225,8.9,10.1,92,0.00,,,0.00,WUHU216HW,2012-10-16 07:35:00,
2012-10-16 00:40:00,56.0,53.6,29.56,SSW,203,5.4,9.6,92,0.00,,,0.00,WUHU216HW,2012-10-16 07:40:00,
2012-10-16 00:45:00,55.8,53.5,29.56,WSW,248,9.8,9.8,92,0.00,,,0.00,WUHU216HW,2012-10-16 07:45:00,
2012-10-16 00:50:00,55.8,53.5,29.56,West,270,4.0,12.1,92,0.00,,,0.00,WUHU216HW,2012-10-16 07:50:00,
2012-10-16 00:55:00,55.6,53.3,29.56,West,270,8.5,12.1,92,0.00,,,0.00,WUHU216HW,2012-10-16 07:55:00,
2012-10-16 01:01:00,55.6,53.3,29.57,SW,225,6.5,11.2,92,0.00,,,0.00,WUHU216HW,2012-10-16 08:01:00,
2012-10-16 01:05:00,55.4,53.1,29.57,SW,225,9.2,11.4,92,0.00,,,0.00,WUHU216HW,2012-10-16 08:05:00,
2012-10-16 01:10:00,55.4,53.1,29.57,South,180,6.7,11.4,92,0.00,,,0.00,WUHU216HW,2012-10-16 08:10:00,
2012-10-16 01:15:00,55.3,52.9,29.57,WSW,248,9.8,10.7,92,0.00,,,0.00,WUHU216HW,2012-10-16 08:15:00,
2012-10-16 01:20:00,55.3,52.9,29.58,SW,225,3.8,10.7,92,0.00,,,0.00,WUHU216HW,2012-10-16 08:20:00,
2012-10-16 01:25:00,55.1,52.7,29.58,WSW,248,8.7,9.8,92,0.00,,,0.00,WUHU216HW,2012-10-16 08:25:00,
2012-10-16 01:30:00,54.9,52.6,29.58,West,270,3.8,10.1,92,0.00,,,0.00,WUHU216HW,2012-10-16 08:30:00,
2012-10-16 01:35:00,54.9,52.6,29.58,West,270,3.1,10.1,92,0.00,,,0.00,WUHU216HW,2012-10-16 08:35:00,
2012-10-16 01:40:00,54.7,52.1,29.58,South,180,2.5,8.9,91,0.00,,,0.00,WUHU216HW,2012-10-16 08:40:00,
2012-10-16 01:45:00,54.5,51.9,29.58,SSW,203,12.1,12.1,91,0.00,,,0.00,WUHU216HW,2012-10-16 08:45:00,
2012-10-16 01:50:00,54.4,51.8,29.58,West,270,3.6,12.1,91,0.00,,,0.00,WUHU216HW,2012-10-16 08:50:00,
2012-10-16 01:55:00,54.4,51.8,29.59,WSW,248,6.5,12.1,91,0.00,,,0.00,WUHU216HW,2012-10-16 08:55:00,
2012-10-16 02:00:00,54.2,51.6,29.59,SW,225,7.6,11.4,91,0.00,,,0.00,WUHU216HW,2012-10-16 09:00:00,
2012-10-16 02:05:00,54.0,51.4,29.59,South,180,5.4,11.4,91,0.00,,,0.00,WUHU216HW,2012-10-16 09:05:00,
2012-10-16 02:10:00,53.6,51.0,29.59,SE,135,4.5,10.1,91,0.00,,,0.00,WUHU216HW,2012-10-16 09:10:00,
2012-10-16 02:15:00,53.6,51.0,29.60,SW,225,3.4,10.5,91,0.00,,,0.00,WUHU216HW,2012-10-16 09:15:00,
2012-10-16 02:20:00,53.6,51.0,29.60,WSW,248,3.4,12.1,91,0.00,,,0.00,WUHU216HW,2012-10-16 09:20:00,
2012-10-16 02:25:00,53.5,50.9,29.60,SW,225,6.5,12.1,91,0.00,,,0.00,WUHU216HW,2012-10-16 09:25:00,
2012-10-16 02:30:00,53.3,50.7,29.61,SSE,158,2.7,13.0,91,0.00,,,0.00,WUHU216HW,2012-10-16 09:30:00,
2012-10-16 02:35:00,53.3,50.9,29.61,WSW,248,6.7,13.0,92,0.00,,,0.00,WUHU216HW,2012-10-16 09:35:00,
2012-10-16 02:40:00,53.1,50.5,29.61,SW,225,14.5,17.2,91,0.00,,,0.00,WUHU216HW,2012-10-16 09:40:00,
2012-10-16 02:45:00,53.1,50.5,29.62,WSW,248,3.4,17.2,91,0.00,,,0.00,WUHU216HW,2012-10-16 09:45:00,
2012-10-16 02:50:00,52.9,50.3,29.62,WSW,248,4.5,14.5,91,0.00,,,0.00,WUHU216HW,2012-10-16 09:50:00,
2012-10-16 02:55:00,52.9,50.3,29.62,SW,225,8.3,14.8,91,0.00,,,0.00,WUHU216HW,2012-10-16 09:55:00,
2012-10-16 03:00:00,52.7,50.1,29.63,SW,225,8.9,14.8,91,0.00,,,0.00,WUHU216HW,2012-10-16 10:00:00,
2012-10-16 03:05:00,52.6,50.0,29.63,WSW,248,8.7,9.2,91,0.00,,,0.00,WUHU216HW,2012-10-16 10:05:00,
2012-10-16 03:10:00,52.6,50.0,29.63,West,270,6.9,12.1,91,0.00,,,0.00,WUHU216HW,2012-10-16 10:10:00,
2012-10-16 03:15:00,52.4,49.8,29.64,WSW,248,9.2,15.9,91,0.00,,,0.00,WUHU216HW,2012-10-16 10:15:00,
2012-10-16 03:20:00,52.4,49.8,29.64,West,270,4.5,16.8,91,0.00,,,0.00,WUHU216HW,2012-10-16 10:20:00,
2012-10-16 03:25:00,52.4,49.8,29.65,SW,225,8.3,16.8,91,0.00,,,0.00,WUHU216HW,2012-10-16 10:25:00,
2012-10-16 03:30:00,52.2,49.6,29.65,SSW,203,1.8,12.8,91,0.00,,,0.00,WUHU216HW,2012-10-16 10:30:00,
2012-10-16 03:36:00,52.2,49.6,29.65,SE,135,3.8,10.7,91,0.00,,,0.00,WUHU216HW,2012-10-16 10:36:00,
2012-10-16 03:41:00,52.2,49.6,29.66,SSW,203,7.8,10.7,91,0.00,,,0.00,WUHU216HW,2012-10-16 10:41:00,
2012-10-16 03:46:00,52.2,49.6,29.66,SSW,203,8.9,8.9,91,0.00,,,0.00,WUHU216HW,2012-10-16 10:46:00,
2012-10-16 03:51:00,52.2,49.6,29.66,SSE,158,4.3,13.4,91,0.00,,,0.00,WUHU216HW,2012-10-16 10:51:00,
2012-10-16 03:56:00,52.2,49.6,29.66,West,270,8.7,13.4,91,0.00,,,0.00,WUHU216HW,2012-10-16 10:56:00,
2012-10-16 04:01:00,52.2,49.6,29.66,SW,225,5.8,11.4,91,0.00,,,0.00,WUHU216HW,2012-10-16 11:01:00,
2012-10-16 04:06:00,52.0,49.4,29.66,WSW,248,6.7,12.8,91,0.00,,,0.00,WUHU216HW,2012-10-16 11:06:00,
2012-10-16 04:11:00,52.0,49.4,29.67,SW,225,8.9,12.8,91,0.00,,,0.00,WUHU216HW,2012-10-16 11:11:00,
2012-10-16 04:16:00,52.0,49.4,29.67,WSW,248,6.3,10.7,91,0.00,,,0.00,WUHU216HW,2012-10-16 11:16:00,
2012-10-16 04:21:00,52.0,49.4,29.68,NNE,23,6.3,10.7,91,0.00,,,0.00,WUHU216HW,2012-10-16 11:21:00,
2012-10-16 04:26:00,52.0,49.4,29.68,NW,315,4.7,8.5,91,0.00,,,0.00,WUHU216HW,2012-10-16 11:26:00,
2012-10-16 04:30:00,52.0,49.4,29.68,SW,225,7.2,8.5,91,0.00,,,0.00,WUHU216HW,2012-10-16 11:30:00,
2012-10-16 04:36:00,51.8,49.2,29.68,SSW,203,3.6,17.0,91,0.00,,,0.00,WUHU216HW,2012-10-16 11:36:00,
2012-10-16 04:40:00,51.8,49.2,29.69,West,270,6.9,17.0,91,0.00,,,0.00,WUHU216HW,2012-10-16 11:40:00,
2012-10-16 04:46:00,51.8,49.2,29.68,ESE,113,2.9,10.3,91,0.00,,,0.00,WUHU216HW,2012-10-16 11:46:00,
2012-10-16 04:51:00,51.8,49.0,29.69,WSW,248,8.1,12.3,90,0.00,,,0.00,WUHU216HW,2012-10-16 11:51:00,
2012-10-16 04:56:00,51.7,48.5,29.69,SE,135,7.2,12.3,89,0.00,,,0.00,WUHU216HW,2012-10-16 11:56:00,
2012-10-16 05:01:00,51.7,48.5,29.70,West,270,5.4,9.2,89,0.00,,,0.00,WUHU216HW,2012-10-16 12:01:00,
2012-10-16 05:06:00,51.5,48.3,29.70,SW,225,8.1,8.1,89,0.00,,,0.00,WUHU216HW,2012-10-16 12:06:00,
2012-10-16 05:11:00,51.5,48.3,29.70,SSE,158,2.5,8.1,89,0.00,,,0.00,WUHU216HW,2012-10-16 12:11:00,
2012-10-16 05:16:00,51.5,48.3,29.70,SSW,203,1.8,8.5,89,0.00,,,0.00,WUHU216HW,2012-10-16 12:16:00,
2012-10-16 05:21:00,51.5,48.6,29.70,SW,225,9.4,9.4,90,0.00,,,0.00,WUHU216HW,2012-10-16 12:21:00,
2012-10-16 05:26:00,51.5,48.6,29.71,South,180,9.6,9.6,90,0.00,,,0.00,WUHU216HW,2012-10-16 12:26:00,
2012-10-16 05:31:00,51.3,48.2,29.72,SW,225,3.6,15.4,89,0.00,,,0.00,WUHU216HW,2012-10-16 12:31:00,
2012-10-16 05:36:00,51.3,48.2,29.72,SSE,158,3.1,15.4,89,0.00,,,0.00,WUHU216HW,2012-10-16 12:36:00,
2012-10-16 05:41:00,51.1,48.2,29.73,NW,315,2.5,6.3,90,0.00,,,0.00,WUHU216HW,2012-10-16 12:41:00,
2012-10-16 05:46:00,50.9,48.1,29.74,NE,45,1.1,3.1,90,0.00,,,0.00,WUHU216HW,2012-10-16 12:46:00,
2012-10-16 05:51:00,50.8,47.6,29.74,WSW,248,2.5,2.5,89,0.00,,,0.00,WUHU216HW,2012-10-16 12:51:00,
2012-10-16 05:56:00,50.8,47.6,29.74,SW,225,1.8,4.9,89,0.00,,,0.00,WUHU216HW,2012-10-16 12:56:00,
2012-10-16 06:01:00,50.6,47.4,29.75,WSW,248,1.6,8.1,89,0.00,,,0.00,WUHU216HW,2012-10-16 13:01:00,
2012-10-16 06:06:00,50.6,47.4,29.75,SSW,203,5.1,8.1,89,0.00,,,0.00,WUHU216HW,2012-10-16 13:06:00,
2012-10-16 06:11:00,50.6,47.4,29.75,SW,225,3.4,5.8,89,0.00,,,0.00,WUHU216HW,2012-10-16 13:11:00,
2012-10-16 06:16:00,50.4,47.3,29.76,WSW,248,4.7,5.8,89,0.00,,,0.00,WUHU216HW,2012-10-16 13:16:00,
2012-10-16 06:21:00,50.2,47.1,29.76,SW,225,7.4,7.6,89,0.00,,,0.00,WUHU216HW,2012-10-16 13:21:00,
2012-10-16 06:26:00,50.0,46.9,29.76,WSW,248,8.5,8.5,89,0.00,,,0.00,WUHU216HW,2012-10-16 13:26:00,
2012-10-16 06:31:00,50.0,46.9,29.76,West,270,2.2,8.9,89,0.00,,,0.00,WUHU216HW,2012-10-16 13:31:00,
2012-10-16 06:36:00,49.9,46.4,29.77,SW,225,4.3,10.7,88,0.00,,,0.00,WUHU216HW,2012-10-16 13:36:00,
2012-10-16 06:41:00,49.9,46.4,29.77,WSW,248,2.9,10.7,88,0.00,,,0.00,WUHU216HW,2012-10-16 13:41:00,
2012-10-16 06:46:00,49.7,46.3,29.78,WSW,248,2.0,8.9,88,0.00,,,0.00,WUHU216HW,2012-10-16 13:46:00,
2012-10-16 06:51:00,49.7,46.3,29.79,SW,225,2.9,8.9,88,0.00,,,0.00,WUHU216HW,2012-10-16 13:51:00,
2012-10-16 06:56:00,49.7,46.3,29.80,SSW,203,1.3,6.9,88,0.00,,,0.00,WUHU216HW,2012-10-16 13:56:00,
2012-10-16 07:01:00,49.5,46.1,29.80,SW,225,4.7,7.6,88,0.00,,,0.00,WUHU216HW,2012-10-16 14:01:00,
2012-10-16 07:06:00,49.3,45.9,29.80,WSW,248,0.9,7.6,88,0.00,,,0.00,WUHU216HW,2012-10-16 14:06:00,
2012-10-16 07:11:00,49.3,45.9,29.81,West,270,5.8,6.9,88,0.00,,,0.00,WUHU216HW,2012-10-16 14:11:00,
2012-10-16 07:16:00,49.3,45.9,29.81,West,270,4.0,5.8,88,0.00,,,0.00,WUHU216HW,2012-10-16 14:16:00,
2012-10-16 07:21:00,49.1,45.7,29.81,SW,225,3.4,5.8,88,0.00,,,0.00,WUHU216HW,2012-10-16 14:21:00,
2012-10-16 07:26:00,49.0,45.9,29.81,West,270,2.9,5.4,89,0.00,,,0.00,WUHU216HW,2012-10-16 14:26:00,
2012-10-16 07:31:00,49.0,45.9,29.81,SSW,203,2.0,5.4,89,0.00,,,0.00,WUHU216HW,2012-10-16 14:31:00,
2012-10-16 07:36:00,49.0,45.9,29.82,WSW,248,2.0,3.8,89,0.00,,,0.00,WUHU216HW,2012-10-16 14:36:00,
2012-10-16 07:41:00,48.8,45.7,29.83,WSW,248,2.5,2.9,89,0.00,,,0.00,WUHU216HW,2012-10-16 14:41:00,
2012-10-16 07:46:00,48.8,45.7,29.83,South,180,1.8,7.6,89,0.00,,,0.00,WUHU216HW,2012-10-16 14:46:00,
2012-10-16 07:51:00,48.6,45.5,29.84,SW,225,4.3,7.6,89,0.00,,,0.00,WUHU216HW,2012-10-16 14:51:00,
2012-10-16 07:56:00,48.6,45.5,29.84,SE,135,1.1,7.2,89,0.00,,,0.00,WUHU216HW,2012-10-16 14:56:00,
2012-10-16 08:01:00,48.6,45.5,29.84,WSW,248,1.1,7.2,89,0.00,,,0.00,WUHU216HW,2012-10-16 15:01:00,
2012-10-16 08:06:00,48.6,45.9,29.84,West,270,1.3,5.1,90,0.00,,,0.00,WUHU216HW,2012-10-16 15:06:00,
2012-10-16 08:11:00,48.6,45.5,29.85,West,270,4.3,5.1,89,0.00,,,0.00,WUHU216HW,2012-10-16 15:11:00,
2012-10-16 08:16:00,48.6,45.5,29.85,WSW,248,7.8,7.8,89,0.00,,,0.00,WUHU216HW,2012-10-16 15:16:00,
2012-10-16 08:21:00,48.8,45.7,29.86,West,270,5.4,12.1,89,0.00,,,0.00,WUHU216HW,2012-10-16 15:21:00,
2012-10-16 08:26:00,48.8,45.7,29.86,WSW,248,2.5,12.1,89,0.00,,,0.00,WUHU216HW,2012-10-16 15:26:00,
2012-10-16 08:31:00,49.0,45.5,29.87,WSW,248,7.8,7.8,88,0.00,,,0.00,WUHU216HW,2012-10-16 15:31:00,
2012-10-16 08:36:00,49.3,45.9,29.87,SSW,203,4.3,9.2,88,0.00,,,0.00,WUHU216HW,2012-10-16 15:36:00,
2012-10-16 08:41:00,49.5,46.1,29.88,SSW,203,4.5,9.2,88,0.00,,,0.00,WUHU216HW,2012-10-16 15:41:00,
2012-10-16 08:46:00,49.9,46.1,29.89,West,270,8.3,8.3,87,0.00,,,0.00,WUHU216HW,2012-10-16 15:46:00,
2012-10-16 08:51:00,50.0,46.5,29.89,West,270,4.5,9.2,88,0.00,,,0.00,WUHU216HW,2012-10-16 15:51:00,
2012-10-16 08:56:00,50.2,46.5,29.90,WSW,248,2.5,9.2,87,0.00,,,0.00,WUHU216HW,2012-10-16 15:56:00,
2012-10-16 09:01:00,50.4,46.6,29.91,SW,225,3.6,7.4,87,0.00,,,0.00,WUHU216HW,2012-10-16 16:01:00,
2012-10-16 09:06:00,50.8,47.0,29.91,ESE,113,1.6,5.1,87,0.00,,,0.00,WUHU216HW,2012-10-16 16:06:00,
2012-10-16 09:11:00,50.8,47.0,29.91,West,270,5.4,8.5,87,0.00,,,0.00,WUHU216HW,2012-10-16 16:11:00,
2012-10-16 09:16:00,50.8,47.3,29.91,WNW,293,3.4,8.5,88,0.00,,,0.00,WUHU216HW,2012-10-16 16:16:00,
2012-10-16 09:21:00,51.1,47.6,29.92,West,270,6.0,10.3,88,0.00,,,0.00,WUHU216HW,2012-10-16 16:21:00,
2012-10-16 09:26:00,51.3,47.8,29.92,WSW,248,2.5,10.3,88,0.00,,,0.00,WUHU216HW,2012-10-16 16:26:00,
2012-10-16 09:31:00,52.2,48.7,29.93,SW,225,5.4,6.0,88,0.00,,,0.00,WUHU216HW,2012-10-16 16:31:00,
2012-10-16 09:36:00,52.6,48.8,29.94,West,270,2.2,5.4,87,0.00,,,0.00,WUHU216HW,2012-10-16 16:36:00,
2012-10-16 09:41:00,52.9,49.2,29.94,WSW,248,1.6,5.4,87,0.00,,,0.00,WUHU216HW,2012-10-16 16:41:00,
2012-10-16 09:46:00,53.1,49.3,29.94,SSW,203,1.8,5.8,87,0.00,,,0.00,WUHU216HW,2012-10-16 16:46:00,
2012-10-16 09:51:00,53.6,49.5,29.95,ESE,113,1.3,7.6,86,0.00,,,0.00,WUHU216HW,2012-10-16 16:51:00,
2012-10-16 09:56:00,53.8,49.7,29.95,West,270,4.7,10.3,86,0.00,,,0.00,WUHU216HW,2012-10-16 16:56:00,
2012-10-16 10:01:00,54.4,50.2,29.96,WSW,248,2.9,10.3,86,0.00,,,0.00,WUHU216HW,2012-10-16 17:01:00,
2012-10-16 10:06:00,54.7,50.6,29.96,WSW,248,2.0,6.3,86,0.00,,,0.00,WUHU216HW,2012-10-16 17:06:00,
2012-10-16 10:11:00,54.9,50.4,29.96,SW,225,2.7,4.7,85,0.00,,,0.00,WUHU216HW,2012-10-16 17:11:00,
2012-10-16 10:16:00,55.1,50.3,29.97,SW,225,2.5,5.1,84,0.00,,,0.00,WUHU216HW,2012-10-16 17:16:00,
2012-10-16 10:21:00,55.4,50.6,29.97,SW,225,5.8,8.5,84,0.00,,,0.00,WUHU216HW,2012-10-16 17:21:00,
2012-10-16 10:26:00,55.8,50.9,29.98,West,270,1.1,8.9,84,0.00,,,0.00,WUHU216HW,2012-10-16 17:26:00,
2012-10-16 10:31:00,56.2,51.3,29.97,SSW,203,5.6,8.9,84,0.00,,,0.00,WUHU216HW,2012-10-16 17:31:00,
2012-10-16 10:36:00,56.2,50.7,29.97,SSW,203,4.9,8.1,82,0.00,,,0.00,WUHU216HW,2012-10-16 17:36:00,
2012-10-16 10:41:00,56.2,50.7,29.98,SW,225,4.0,6.3,82,0.00,,,0.00,WUHU216HW,2012-10-16 17:41:00,
2012-10-16 10:46:00,56.2,50.4,29.98,SSW,203,4.7,11.0,81,0.00,,,0.00,WUHU216HW,2012-10-16 17:46:00,
2012-10-16 10:51:00,56.3,49.9,29.98,WSW,248,8.1,11.0,79,0.00,,,0.00,WUHU216HW,2012-10-16 17:51:00,
2012-10-16 10:56:00,56.2,50.4,29.99,West,270,1.8,8.1,81,0.00,,,0.00,WUHU216HW,2012-10-16 17:56:00,
2012-10-16 11:01:00,55.8,49.7,29.99,West,270,5.8,8.1,80,0.00,,,0.00,WUHU216HW,2012-10-16 18:01:00,
2012-10-16 11:06:00,55.8,49.7,29.99,SW,225,4.7,9.2,80,0.00,,,0.00,WUHU216HW,2012-10-16 18:06:00,
2012-10-16 11:11:00,55.8,49.7,29.99,WSW,248,3.4,9.2,80,0.00,,,0.00,WUHU216HW,2012-10-16 18:11:00,
2012-10-16 11:15:00,56.0,49.5,29.99,SW,225,8.1,11.4,79,0.00,,,0.00,WUHU216HW,2012-10-16 18:15:00,
2012-10-16 11:20:00,56.0,49.5,29.99,SSW,203,13.4,13.4,79,0.00,,,0.00,WUHU216HW,2012-10-16 18:20:00,
2012-10-16 11:25:00,56.5,50.0,30.00,WSW,248,9.6,15.0,79,0.00,,,0.00,WUHU216HW,2012-10-16 18:25:00,
2012-10-16 11:30:00,56.7,50.2,30.00,WSW,248,9.8,15.0,79,0.00,,,0.00,WUHU216HW,2012-10-16 18:30:00,
2012-10-16 11:36:00,56.9,50.4,30.00,WSW,248,7.6,9.8,79,0.00,,,0.00,WUHU216HW,2012-10-16 18:36:00,
2012-10-16 11:40:00,57.2,50.0,30.00,WSW,248,6.7,12.1,77,0.00,,,0.00,WUHU216HW,2012-10-16 18:40:00,
2012-10-16 11:45:00,57.4,50.2,30.00,SSW,203,5.1,12.1,77,0.00,,,0.00,WUHU216HW,2012-10-16 18:45:00,
2012-10-16 11:51:00,58.0,51.1,30.00,NW,315,3.4,14.5,78,0.00,,,0.00,WUHU216HW,2012-10-16 18:51:00,
2012-10-16 11:55:00,58.0,50.4,30.00,SW,225,7.4,14.5,76,0.00,,,0.00,WUHU216HW,2012-10-16 18:55:00,
2012-10-16 12:00:00,58.5,51.3,30.00,SW,225,12.1,12.1,77,0.00,,,0.00,WUHU216HW,2012-10-16 19:00:00,
2012-10-16 12:05:00,58.7,51.1,30.00,SSW,203,9.2,12.1,76,0.00,,,0.00,WUHU216HW,2012-10-16 19:05:00,
2012-10-16 12:11:00,58.9,51.3,30.01,WSW,248,8.5,12.1,76,0.00,,,0.00,WUHU216HW,2012-10-16 19:11:00,
2012-10-16 12:16:00,58.9,51.3,30.01,SW,225,7.2,10.5,76,0.00,,,0.00,WUHU216HW,2012-10-16 19:16:00,
2012-10-16 12:21:00,59.0,51.1,30.02,SE,135,1.8,11.4,75,0.00,,,0.00,WUHU216HW,2012-10-16 19:21:00,
2012-10-16 12:26:00,59.0,51.1,30.02,West,270,8.3,12.5,75,0.00,,,0.00,WUHU216HW,2012-10-16 19:26:00,
2012-10-16 12:31:00,59.2,51.3,30.02,WSW,248,1.8,12.5,75,0.00,,,0.00,WUHU216HW,2012-10-16 19:31:00,
2012-10-16 12:36:00,59.4,51.5,30.02,ENE,68,2.9,11.4,75,0.00,,,0.00,WUHU216HW,2012-10-16 19:36:00,
2012-10-16 12:41:00,59.6,51.7,30.02,SW,225,2.5,7.6,75,0.00,,,0.00,WUHU216HW,2012-10-16 19:41:00,
2012-10-16 12:46:00,59.6,51.7,30.02,West,270,3.4,3.4,75,0.00,,,0.00,WUHU216HW,2012-10-16 19:46:00,
2012-10-16 12:51:00,59.8,51.5,30.02,WSW,248,5.4,9.4,74,0.00,,,0.00,WUHU216HW,2012-10-16 19:51:00,
2012-10-16 12:56:00,60.1,51.5,30.02,West,270,5.4,10.5,73,0.00,,,0.00,WUHU216HW,2012-10-16 19:56:00,
2012-10-16 13:01:00,60.1,51.5,30.02,NNE,23,3.8,10.5,73,0.00,,,0.00,WUHU216HW,2012-10-16 20:01:00,
2012-10-16 13:06:00,60.1,51.5,30.02,West,270,8.7,8.7,73,0.00,,,0.00,WUHU216HW,2012-10-16 20:06:00,
2012-10-16 13:11:00,60.1,51.5,30.03,SW,225,13.6,13.6,73,0.00,,,0.00,WUHU216HW,2012-10-16 20:11:00,
2012-10-16 13:16:00,60.1,51.5,30.03,SSE,158,2.9,13.6,73,0.00,,,0.00,WUHU216HW,2012-10-16 20:16:00,
2012-10-16 13:21:00,60.1,50.8,30.03,West,270,14.3,16.3,71,0.00,,,0.00,WUHU216HW,2012-10-16 20:21:00,
2012-10-16 13:26:00,60.1,50.4,30.03,SSW,203,15.2,16.3,70,0.00,,,0.00,WUHU216HW,2012-10-16 20:26:00,
2012-10-16 13:31:00,59.8,50.4,30.03,SSW,203,6.3,15.2,71,0.00,,,0.00,WUHU216HW,2012-10-16 20:31:00,
2012-10-16 13:36:00,59.6,50.2,30.04,SSW,203,6.9,15.2,71,0.00,,,0.00,WUHU216HW,2012-10-16 20:36:00,
2012-10-16 13:41:00,59.8,50.8,30.04,SW,225,7.8,10.7,72,0.00,,,0.00,WUHU216HW,2012-10-16 20:41:00,
2012-10-16 13:46:00,59.8,50.4,30.04,West,270,8.5,12.3,71,0.00,,,0.00,WUHU216HW,2012-10-16 20:46:00,
2012-10-16 13:51:00,59.9,50.6,30.04,SW,225,3.8,12.3,71,0.00,,,0.00,WUHU216HW,2012-10-16 20:51:00,
2012-10-16 13:56:00,59.8,50.8,30.03,West,270,3.4,8.5,72,0.00,,,0.00,WUHU216HW,2012-10-16 20:56:00,
2012-10-16 14:01:00,59.9,50.9,30.04,SSW,203,6.3,8.7,72,0.00,,,0.00,WUHU216HW,2012-10-16 21:01:00,
2012-10-16 14:06:00,60.1,50.4,30.04,West,270,6.3,8.7,70,0.00,,,0.00,WUHU216HW,2012-10-16 21:06:00,
2012-10-16 14:11:00,59.8,49.6,30.04,SSW,203,10.3,10.3,69,0.00,,,0.00,WUHU216HW,2012-10-16 21:11:00,
2012-10-16 14:16:00,59.8,50.0,30.04,North,0,5.1,10.3,70,0.00,,,0.00,WUHU216HW,2012-10-16 21:16:00,
2012-10-16 14:21:00,59.8,50.4,30.04,West,270,7.2,10.3,71,0.00,,,0.00,WUHU216HW,2012-10-16 21:21:00,
2012-10-16 14:26:00,59.4,49.7,30.04,WSW,248,9.2,10.5,70,0.00,,,0.00,WUHU216HW,2012-10-16 21:26:00,
2012-10-16 14:31:00,59.2,49.5,30.04,West,270,9.2,11.6,70,0.00,,,0.00,WUHU216HW,2012-10-16 21:31:00,
2012-10-16 14:36:00,59.0,49.3,30.04,WSW,248,4.3,11.6,70,0.00,,,0.00,WUHU216HW,2012-10-16 21:36:00,
2012-10-16 14:41:00,59.0,49.3,30.04,West,270,7.2,9.2,70,0.00,,,0.00,WUHU216HW,2012-10-16 21:41:00,
2012-10-16 14:46:00,59.0,48.9,30.05,SW,225,6.3,7.2,69,0.00,,,0.00,WUHU216HW,2012-10-16 21:46:00,
2012-10-16 14:51:00,58.7,49.0,30.05,ESE,113,2.5,7.2,70,0.00,,,0.00,WUHU216HW,2012-10-16 21:51:00,
2012-10-16 14:56:00,58.3,49.0,30.05,SW,225,3.4,6.3,71,0.00,,,0.00,WUHU216HW,2012-10-16 21:56:00,
2012-10-16 15:01:00,58.3,49.0,30.05,SSW,203,6.3,11.0,71,0.00,,,0.00,WUHU216HW,2012-10-16 22:01:00,
2012-10-16 15:06:00,58.0,48.2,30.05,SSE,158,6.5,11.0,70,0.00,,,0.00,WUHU216HW,2012-10-16 22:06:00,
2012-10-16 15:11:00,58.0,48.6,30.05,SW,225,4.0,10.5,71,0.00,,,0.00,WUHU216HW,2012-10-16 22:11:00,
2012-10-16 15:16:00,57.6,48.6,30.06,WSW,248,11.4,11.9,72,0.00,,,0.00,WUHU216HW,2012-10-16 22:16:00,
2012-10-16 15:21:00,57.4,48.4,30.06,SSW,203,10.5,11.9,72,0.00,,,0.00,WUHU216HW,2012-10-16 22:21:00,
2012-10-16 15:26:00,57.1,48.4,30.06,SW,225,6.9,11.4,73,0.00,,,0.00,WUHU216HW,2012-10-16 22:26:00,
2012-10-16 15:31:00,56.9,48.6,30.07,SSW,203,4.7,15.0,74,0.00,,,0.00,WUHU216HW,2012-10-16 22:31:00,
2012-10-16 15:36:00,57.1,49.1,30.07,West,270,2.5,15.0,75,0.00,,,0.00,WUHU216HW,2012-10-16 22:36:00,
2012-10-16 15:41:00,57.2,49.3,30.06,WSW,248,6.0,9.4,75,0.00,,,0.00,WUHU216HW,2012-10-16 22:41:00,
2012-10-16 15:46:00,57.2,49.0,30.07,WNW,293,4.9,8.7,74,0.00,,,0.00,WUHU216HW,2012-10-16 22:46:00,
2012-10-16 15:51:00,57.4,49.1,30.07,WSW,248,4.7,8.3,74,0.00,,,0.00,WUHU216HW,2012-10-16 22:51:00,
2012-10-16 15:56:00,57.4,48.8,30.07,West,270,5.8,13.4,73,0.00,,,0.00,WUHU216HW,2012-10-16 22:56:00,
2012-10-16 16:01:00,57.2,48.6,30.07,West,270,8.1,13.4,73,0.00,,,0.00,WUHU216HW,2012-10-16 23:01:00,
2012-10-16 16:06:00,57.4,48.8,30.07,West,270,8.1,8.1,73,0.00,,,0.00,WUHU216HW,2012-10-16 23:06:00,
2012-10-16 16:11:00,57.2,48.6,30.07,West,270,5.1,8.1,73,0.00,,,0.00,WUHU216HW,2012-10-16 23:11:00,
2012-10-16 16:16:00,57.1,48.4,30.08,West,270,8.5,9.2,73,0.00,,,0.00,WUHU216HW,2012-10-16 23:16:00,
2012-10-16 16:21:00,56.9,48.2,30.08,SSE,158,2.5,9.6,73,0.00,,,0.00,WUHU216HW,2012-10-16 23:21:00,
2012-10-16 16:26:00,56.7,48.1,30.08,SW,225,8.1,10.5,73,0.00,,,0.00,WUHU216HW,2012-10-16 23:26:00,
2012-10-16 16:31:00,56.5,48.0,30.08,WSW,248,4.9,10.5,73,0.00,,,0.00,WUHU216HW,2012-10-16 23:31:00,
2012-10-16 16:36:00,56.5,48.0,30.08,West,270,5.8,8.9,73,0.00,,,0.00,WUHU216HW,2012-10-16 23:36:00,
2012-10-16 16:41:00,56.3,48.2,30.09,WSW,248,7.6,8.5,74,0.00,,,0.00,WUHU216HW,2012-10-16 23:41:00,
2012-10-16 16:46:00,56.0,47.8,30.09,SSW,203,6.9,8.5,74,0.00,,,0.00,WUHU216HW,2012-10-16 23:46:00,
2012-10-16 16:51:00,55.8,47.6,30.09,West,270,4.3,8.5,74,0.00,,,0.00,WUHU216HW,2012-10-16 23:51:00,
2012-10-16 16:56:00,55.8,47.6,30.09,SW,225,2.5,8.3,74,0.00,,,0.00,WUHU216HW,2012-10-16 23:56:00,
2012-10-16 17:01:00,55.6,47.8,30.09,West,270,2.7,8.3,75,0.00,,,0.00,WUHU216HW,2012-10-17 00:01:00,
2012-10-16 17:06:00,55.6,47.8,30.09,WSW,248,6.9,6.9,75,0.00,,,0.00,WUHU216HW,2012-10-17 00:06:00,
2012-10-16 17:11:00,55.4,48.0,30.10,SSE,158,4.7,6.9,76,0.00,,,0.00,WUHU216HW,2012-10-17 00:11:00,
2012-10-16 17:16:00,55.1,47.6,30.10,SSE,158,4.7,6.5,76,0.00,,,0.00,WUHU216HW,2012-10-17 00:16:00,
2012-10-16 17:21:00,55.1,47.6,30.10,SW,225,6.9,7.6,76,0.00,,,0.00,WUHU216HW,2012-10-17 00:21:00,
2012-10-16 17:26:00,54.9,47.4,30.10,West,270,3.6,7.6,76,0.00,,,0.00,WUHU216HW,2012-10-17 00:26:00,
2012-10-16 17:31:00,54.7,47.3,30.10,SW,225,1.1,9.2,76,0.00,,,0.00,WUHU216HW,2012-10-17 00:31:00,
2012-10-16 17:36:00,54.5,47.1,30.11,SSW,203,7.6,9.2,76,0.00,,,0.00,WUHU216HW,2012-10-17 00:36:00,
2012-10-16 17:41:00,54.4,47.0,30.11,SSW,203,2.7,8.5,76,0.00,,,0.00,WUHU216HW,2012-10-17 00:41:00,
2012-10-16 17:46:00,54.4,47.0,30.11,SSW,203,0.4,7.6,76,0.00,,,0.00,WUHU216HW,2012-10-17 00:46:00,
2012-10-16 17:51:00,54.0,47.0,30.12,WNW,293,0.4,5.4,77,0.00,,,0.00,WUHU216HW,2012-10-17 00:51:00,
2012-10-16 17:56:00,53.8,46.8,30.12,WSW,248,2.7,4.7,77,0.00,,,0.00,WUHU216HW,2012-10-17 00:56:00,
2012-10-16 18:01:00,53.6,46.6,30.12,SW,225,3.1,4.7,77,0.00,,,0.00,WUHU216HW,2012-10-17 01:01:00,
2012-10-16 18:06:00,53.5,46.4,30.12,SSW,203,3.1,4.5,77,0.00,,,0.00,WUHU216HW,2012-10-17 01:06:00,
2012-10-16 18:11:00,53.3,46.3,30.13,SW,225,1.6,4.0,77,0.00,,,0.00,WUHU216HW,2012-10-17 01:11:00,
2012-10-16 18:16:00,53.1,46.4,30.13,SSW,203,4.5,6.3,78,0.00,,,0.00,WUHU216HW,2012-10-17 01:16:00,
2012-10-16 18:21:00,52.9,46.3,30.13,SW,225,1.3,6.3,78,0.00,,,0.00,WUHU216HW,2012-10-17 01:21:00,
2012-10-16 18:26:00,52.7,46.1,30.13,SW,225,3.1,4.3,78,0.00,,,0.00,WUHU216HW,2012-10-17 01:26:00,
2012-10-16 18:31:00,52.4,45.7,30.13,SW,225,2.0,4.3,78,0.00,,,0.00,WUHU216HW,2012-10-17 01:31:00,
2012-10-16 18:36:00,52.2,45.9,30.12,SE,135,1.1,3.4,79,0.00,,,0.00,WUHU216HW,2012-10-17 01:36:00,
2012-10-16 18:41:00,51.8,45.5,30.13,SSW,203,1.3,2.5,79,0.00,,,0.00,WUHU216HW,2012-10-17 01:41:00,
2012-10-16 18:46:00,51.8,45.9,30.13,SSW,203,2.5,2.5,80,0.00,,,0.00,WUHU216HW,2012-10-17 01:46:00,
2012-10-16 18:51:00,51.7,45.7,30.14,SW,225,1.6,2.7,80,0.00,,,0.00,WUHU216HW,2012-10-17 01:51:00,
2012-10-16 18:56:00,51.5,45.5,30.14,SW,225,0.7,4.0,80,0.00,,,0.00,WUHU216HW,2012-10-17 01:56:00,
2012-10-16 19:01:00,51.1,45.2,30.14,SW,225,1.3,4.0,80,0.00,,,0.00,WUHU216HW,2012-10-17 02:01:00,
2012-10-16 19:06:00,50.9,45.3,30.14,SW,225,0.4,3.4,81,0.00,,,0.00,WUHU216HW,2012-10-17 02:06:00,
2012-10-16 19:11:00,50.9,45.3,30.15,SW,225,0.4,1.3,81,0.00,,,0.00,WUHU216HW,2012-10-17 02:11:00,
2012-10-16 19:16:00,50.8,45.5,30.15,SW,225,1.8,2.5,82,0.00,,,0.00,WUHU216HW,2012-10-17 02:16:00,
2012-10-16 19:21:00,50.6,45.3,30.15,SW,225,2.7,3.4,82,0.00,,,0.00,WUHU216HW,2012-10-17 02:21:00,
2012-10-16 19:26:00,50.2,44.9,30.15,SSW,203,3.1,4.5,82,0.00,,,0.00,WUHU216HW,2012-10-17 02:26:00,
2012-10-16 19:31:00,50.0,44.7,30.16,SSW,203,3.1,5.4,82,0.00,,,0.00,WUHU216HW,2012-10-17 02:31:00,
2012-10-16 19:36:00,49.9,44.6,30.16,SW,225,2.5,5.8,82,0.00,,,0.00,WUHU216HW,2012-10-17 02:36:00,
2012-10-16 19:41:00,49.9,44.8,30.16,SSW,203,2.5,5.8,83,0.00,,,0.00,WUHU216HW,2012-10-17 02:41:00,
2012-10-16 19:46:00,49.7,44.6,30.16,SW,225,1.3,4.7,83,0.00,,,0.00,WUHU216HW,2012-10-17 02:46:00,
2012-10-16 19:51:00,49.7,44.6,30.16,WSW,248,3.4,4.0,83,0.00,,,0.00,WUHU216HW,2012-10-17 02:51:00,
2012-10-16 19:56:00,49.5,44.5,30.17,WSW,248,2.0,4.7,83,0.00,,,0.00,WUHU216HW,2012-10-17 02:56:00,
2012-10-16 20:01:00,49.3,44.3,30.17,WSW,248,2.2,4.7,83,0.00,,,0.00,WUHU216HW,2012-10-17 03:01:00,
2012-10-16 20:06:00,49.3,44.3,30.17,SW,225,1.8,3.8,83,0.00,,,0.00,WUHU216HW,2012-10-17 03:06:00,
2012-10-16 20:11:00,49.3,44.3,30.17,WSW,248,1.8,3.4,83,0.00,,,0.00,WUHU216HW,2012-10-17 03:11:00,
2012-10-16 20:16:00,49.1,44.1,30.18,SW,225,1.8,3.6,83,0.00,,,0.00,WUHU216HW,2012-10-17 03:16:00,
2012-10-16 20:21:00,49.0,44.3,30.17,WSW,248,2.2,4.0,84,0.00,,,0.00,WUHU216HW,2012-10-17 03:21:00,
2012-10-16 20:26:00,48.8,43.8,30.17,SW,225,2.0,4.0,83,0.00,,,0.00,WUHU216HW,2012-10-17 03:26:00,
2012-10-16 20:31:00,48.6,43.7,30.17,SW,225,1.8,4.7,83,0.00,,,0.00,WUHU216HW,2012-10-17 03:31:00,
2012-10-16 20:36:00,48.6,43.7,30.17,West,270,1.3,4.7,83,0.00,,,0.00,WUHU216HW,2012-10-17 03:36:00,
2012-10-16 20:41:00,48.6,43.7,30.17,SW,225,1.1,2.5,83,0.00,,,0.00,WUHU216HW,2012-10-17 03:41:00,
2012-10-16 20:46:00,48.6,43.9,30.17,SW,225,0.9,4.0,84,0.00,,,0.00,WUHU216HW,2012-10-17 03:46:00,
2012-10-16 20:51:00,48.6,43.9,30.18,West,270,0.0,4.0,84,0.00,,,0.00,WUHU216HW,2012-10-17 03:51:00,
2012-10-16 20:56:00,48.6,43.9,30.18,SSW,203,2.5,2.5,84,0.00,,,0.00,WUHU216HW,2012-10-17 03:56:00,
2012-10-16 21:00:00,48.6,43.9,30.17,SW,225,1.1,2.5,84,0.00,,,0.00,WUHU216HW,2012-10-17 04:00:00,
2012-10-16 21:01:00,48.6,43.9,30.18,SW,225,0.4,2.5,84,0.00,,,0.00,WUHU216HW,2012-10-17 04:01:00,
2012-10-16 21:06:00,48.6,43.9,30.18,SW,225,1.6,2.0,84,0.00,,,0.00,WUHU216HW,2012-10-17 04:06:00,
2012-10-16 21:11:00,48.4,43.7,30.18,South,180,0.7,2.0,84,0.00,,,0.00,WUHU216HW,2012-10-17 04:11:00,
2012-10-16 21:16:00,48.2,43.6,30.18,WSW,248,2.0,2.2,84,0.00,,,0.00,WUHU216HW,2012-10-17 04:16:00,
2012-10-16 21:21:00,47.9,43.3,30.18,SW,225,1.6,2.7,84,0.00,,,0.00,WUHU216HW,2012-10-17 04:21:00,
2012-10-16 21:26:00,47.7,43.4,30.19,WSW,248,1.1,2.7,85,0.00,,,0.00,WUHU216HW,2012-10-17 04:26:00,
2012-10-16 21:31:00,47.5,43.2,30.20,SW,225,1.6,3.1,85,0.00,,,0.00,WUHU216HW,2012-10-17 04:31:00,
2012-10-16 21:36:00,47.3,43.0,30.20,WSW,248,1.6,3.1,85,0.00,,,0.00,WUHU216HW,2012-10-17 04:36:00,
2012-10-16 21:41:00,47.3,43.0,30.20,SW,225,1.6,3.1,85,0.00,,,0.00,WUHU216HW,2012-10-17 04:41:00,
2012-10-16 21:46:00,47.2,42.9,30.20,WSW,248,1.8,3.1,85,0.00,,,0.00,WUHU216HW,2012-10-17 04:46:00,
2012-10-16 21:51:00,47.2,42.9,30.20,SW,225,2.2,3.1,85,0.00,,,0.00,WUHU216HW,2012-10-17 04:51:00,
2012-10-16 21:56:00,46.8,42.6,30.20,WSW,248,2.5,3.1,85,0.00,,,0.00,WUHU216HW,2012-10-17 04:56:00,
2012-10-16 22:01:00,46.8,42.6,30.20,WSW,248,0.7,2.7,85,0.00,,,0.00,WUHU216HW,2012-10-17 05:01:00,
2012-10-16 22:06:00,46.6,42.7,30.20,SW,225,1.3,2.7,86,0.00,,,0.00,WUHU216HW,2012-10-17 05:06:00,
2012-10-16 22:11:00,46.6,42.7,30.20,SW,225,1.8,2.7,86,0.00,,,0.00,WUHU216HW,2012-10-17 05:11:00,
2012-10-16 22:16:00,46.4,42.5,30.20,WSW,248,2.0,3.4,86,0.00,,,0.00,WUHU216HW,2012-10-17 05:16:00,
2012-10-16 22:21:00,46.4,42.5,30.20,WSW,248,1.1,3.4,86,0.00,,,0.00,WUHU216HW,2012-10-17 05:21:00,
2012-10-16 22:26:00,46.3,42.3,30.20,WSW,248,1.8,2.5,86,0.00,,,0.00,WUHU216HW,2012-10-17 05:26:00,
2012-10-16 22:31:00,46.4,42.5,30.21,WSW,248,0.9,1.8,86,0.00,,,0.00,WUHU216HW,2012-10-17 05:31:00,
2012-10-16 22:36:00,46.4,42.5,30.21,WSW,248,0.0,1.8,86,0.00,,,0.00,WUHU216HW,2012-10-17 05:36:00,
2012-10-16 22:41:00,46.4,42.9,30.22,WSW,248,1.1,1.6,87,0.00,,,0.00,WUHU216HW,2012-10-17 05:41:00,
2012-10-16 22:46:00,46.3,42.3,30.22,West,270,1.8,2.7,86,0.00,,,0.00,WUHU216HW,2012-10-17 05:46:00,
2012-10-16 22:51:00,46.1,42.5,30.22,WSW,248,2.2,3.4,87,0.00,,,0.00,WUHU216HW,2012-10-17 05:51:00,
2012-10-16 22:56:00,45.9,42.3,30.22,SW,225,3.1,4.0,87,0.00,,,0.00,WUHU216HW,2012-10-17 05:56:00,
2012-10-16 23:01:00,45.7,42.1,30.22,SW,225,2.2,4.0,87,0.00,,,0.00,WUHU216HW,2012-10-17 06:01:00,
2012-10-16 23:06:00,45.7,42.1,30.22,SW,225,2.5,4.0,87,0.00,,,0.00,WUHU216HW,2012-10-17 06:06:00,
2012-10-16 23:11:00,45.5,42.0,30.22,WSW,248,2.2,4.7,87,0.00,,,0.00,WUHU216HW,2012-10-17 06:11:00,
2012-10-16 23:16:00,45.4,42.0,30.22,SW,225,2.5,4.7,88,0.00,,,0.00,WUHU216HW,2012-10-17 06:16:00,
2012-10-16 23:21:00,45.4,42.0,30.22,West,270,1.8,3.1,88,0.00,,,0.00,WUHU216HW,2012-10-17 06:21:00,
2012-10-16 23:26:00,45.4,42.0,30.23,WNW,293,0.0,2.5,88,0.00,,,0.00,WUHU216HW,2012-10-17 06:26:00,
2012-10-16 23:31:00,45.4,42.0,30.23,WNW,293,1.1,1.8,88,0.00,,,0.00,WUHU216HW,2012-10-17 06:31:00,
2012-10-16 23:36:00,45.4,42.0,30.23,West,270,1.3,1.8,88,0.00,,,0.00,WUHU216HW,2012-10-17 06:36:00,
2012-10-16 23:41:00,45.2,41.9,30.23,WSW,248,0.9,1.8,88,0.00,,,0.00,WUHU216HW,2012-10-17 06:41:00,
2012-10-16 23:46:00,45.2,41.9,30.23,West,270,1.1,1.8,88,0.00,,,0.00,WUHU216HW,2012-10-17 06:46:00,
2012-10-16 23:51:00,45.0,41.7,30.23,West,270,1.8,1.8,88,0.00,,,0.00,WUHU216HW,2012-10-17 06:51:00,
2012-10-16 23:56:00,45.0,41.7,30.24,WSW,248,1.6,2.2,88,0.00,,,0.00,WUHU216HW,2012-10-17 06:56:00,